sensor_id;sensor_type;location;lat;lon;timestamp;P1;durP1;ratioP1;P2;durP2;ratioP2
19205;SDS011;59358;52.134;5.596;2023-02-12T00:02:25;36.15;;;19.92;;
19205;SDS011;59358;52.134;5.596;2023-02-12T00:04:54;30.23;;;19.45;;
19205;SDS011;59358;52.134;5.596;2023-02-12T00:07:20;30.88;;;19.45;;
19205;SDS011;59358;52.134;5.596;2023-02-12T00:09:48;34.72;;;19.50;;
19205;SDS011;59358;52.134;5.596;2023-02-12T00:12:15;33.45;;;19.40;;
19205;SDS011;59358;52.134;5.596;2023-02-12T00:14:42;34.10;;;19.42;;
19205;SDS011;59358;52.134;5.596;2023-02-12T00:17:09;33.08;;;19.63;;
19205;SDS011;59358;52.134;5.596;2023-02-12T00:19:36;34.08;;;19.23;;
19205;SDS011;59358;52.134;5.596;2023-02-12T00:22:04;36.00;;;20.30;;
19205;SDS011;59358;52.134;5.596;2023-02-12T00:24:31;36.95;;;21.27;;
19205;SDS011;59358;52.134;5.596;2023-02-12T00:26:58;35.30;;;21.17;;
19205;SDS011;59358;52.134;5.596;2023-02-12T00:29:27;36.67;;;21.33;;
19205;SDS011;59358;52.134;5.596;2023-02-12T00:31:54;31.02;;;19.00;;
19205;SDS011;59358;52.134;5.596;2023-02-12T00:34:21;31.98;;;19.45;;
19205;SDS011;59358;52.134;5.596;2023-02-12T00:36:48;36.35;;;21.23;;
19205;SDS011;59358;52.134;5.596;2023-02-12T00:39:16;41.03;;;20.13;;
19205;SDS011;59358;52.134;5.596;2023-02-12T00:41:43;42.70;;;20.70;;
19205;SDS011;59358;52.134;5.596;2023-02-12T00:44:10;30.85;;;20.77;;
19205;SDS011;59358;52.134;5.596;2023-02-12T00:46:37;33.67;;;20.92;;
19205;SDS011;59358;52.134;5.596;2023-02-12T00:49:03;36.17;;;21.05;;
19205;SDS011;59358;52.134;5.596;2023-02-12T00:51:30;35.63;;;22.30;;
19205;SDS011;59358;52.134;5.596;2023-02-12T00:53:57;38.22;;;21.98;;
19205;SDS011;59358;52.134;5.596;2023-02-12T00:56:25;42.95;;;22.70;;
19205;SDS011;59358;52.134;5.596;2023-02-12T00:58:52;32.65;;;20.73;;
19205;SDS011;59358;52.134;5.596;2023-02-12T01:01:19;35.00;;;19.83;;
19205;SDS011;59358;52.134;5.596;2023-02-12T01:03:46;38.40;;;21.13;;
19205;SDS011;59358;52.134;5.596;2023-02-12T01:06:13;41.50;;;22.95;;
19205;SDS011;59358;52.134;5.596;2023-02-12T01:08:40;38.88;;;22.15;;
19205;SDS011;59358;52.134;5.596;2023-02-12T01:11:06;38.28;;;22.80;;
19205;SDS011;59358;52.134;5.596;2023-02-12T01:13:35;42.78;;;22.17;;
19205;SDS011;59358;52.134;5.596;2023-02-12T01:16:02;45.88;;;23.25;;
19205;SDS011;59358;52.134;5.596;2023-02-12T01:18:30;40.67;;;23.70;;
19205;SDS011;59358;52.134;5.596;2023-02-12T01:20:58;35.97;;;21.63;;
19205;SDS011;59358;52.134;5.596;2023-02-12T01:23:25;37.22;;;22.00;;
19205;SDS011;59358;52.134;5.596;2023-02-12T01:25:53;34.55;;;21.00;;
19205;SDS011;59358;52.134;5.596;2023-02-12T01:28:20;41.17;;;22.50;;
19205;SDS011;59358;52.134;5.596;2023-02-12T01:30:48;33.03;;;21.60;;
19205;SDS011;59358;52.134;5.596;2023-02-12T01:33:16;35.45;;;20.38;;
19205;SDS011;59358;52.134;5.596;2023-02-12T01:35:42;39.33;;;23.38;;
19205;SDS011;59358;52.134;5.596;2023-02-12T01:38:09;40.75;;;24.80;;
19205;SDS011;59358;52.134;5.596;2023-02-12T01:40:36;39.15;;;24.10;;
19205;SDS011;59358;52.134;5.596;2023-02-12T01:43:03;36.10;;;22.60;;
19205;SDS011;59358;52.134;5.596;2023-02-12T01:48:19;40.17;;;24.42;;
19205;SDS011;59358;52.134;5.596;2023-02-12T01:50:48;40.28;;;24.17;;
19205;SDS011;59358;52.134;5.596;2023-02-12T01:53:18;41.10;;;22.85;;
19205;SDS011;59358;52.134;5.596;2023-02-12T01:55:48;38.47;;;23.48;;
19205;SDS011;59358;52.134;5.596;2023-02-12T01:58:20;45.72;;;26.58;;
19205;SDS011;59358;52.134;5.596;2023-02-12T02:00:48;44.65;;;25.13;;
19205;SDS011;59358;52.134;5.596;2023-02-12T02:03:16;45.92;;;24.40;;
19205;SDS011;59358;52.134;5.596;2023-02-12T02:05:45;43.03;;;23.55;;
19205;SDS011;59358;52.134;5.596;2023-02-12T02:08:18;39.85;;;22.73;;
19205;SDS011;59358;52.134;5.596;2023-02-12T02:10:44;38.85;;;22.30;;
19205;SDS011;59358;52.134;5.596;2023-02-12T02:13:11;42.88;;;23.23;;
19205;SDS011;59358;52.134;5.596;2023-02-12T02:15:57;44.30;;;23.90;;
19205;SDS011;59358;52.134;5.596;2023-02-12T02:18:31;43.42;;;24.45;;
19205;SDS011;59358;52.134;5.596;2023-02-12T02:24:23;39.72;;;23.17;;
19205;SDS011;59358;52.134;5.596;2023-02-12T02:27:15;43.35;;;24.02;;
19205;SDS011;59358;52.134;5.596;2023-02-12T02:32:42;50.38;;;26.77;;
19205;SDS011;59358;52.134;5.596;2023-02-12T02:35:17;47.65;;;25.58;;
19205;SDS011;59358;52.134;5.596;2023-02-12T02:37:52;45.97;;;25.67;;
19205;SDS011;59358;52.134;5.596;2023-02-12T02:40:30;51.70;;;27.25;;
19205;SDS011;59358;52.134;5.596;2023-02-12T02:43:03;44.28;;;24.95;;
19205;SDS011;59358;52.134;5.596;2023-02-12T02:45:36;46.05;;;25.13;;
19205;SDS011;59358;52.134;5.596;2023-02-12T02:48:08;46.05;;;26.23;;
19205;SDS011;59358;52.134;5.596;2023-02-12T02:50:40;55.75;;;28.77;;
19205;SDS011;59358;52.134;5.596;2023-02-12T02:53:12;52.17;;;28.92;;
19205;SDS011;59358;52.134;5.596;2023-02-12T02:55:43;53.33;;;27.08;;
19205;SDS011;59358;52.134;5.596;2023-02-12T02:58:13;48.85;;;26.27;;
19205;SDS011;59358;52.134;5.596;2023-02-12T03:00:44;48.58;;;26.63;;
19205;SDS011;59358;52.134;5.596;2023-02-12T03:03:20;48.25;;;26.38;;
19205;SDS011;59358;52.134;5.596;2023-02-12T03:05:53;48.63;;;27.00;;
19205;SDS011;59358;52.134;5.596;2023-02-12T03:08:24;54.67;;;27.52;;
19205;SDS011;59358;52.134;5.596;2023-02-12T03:10:59;48.15;;;27.15;;
19205;SDS011;59358;52.134;5.596;2023-02-12T03:13:29;46.00;;;26.27;;
19205;SDS011;59358;52.134;5.596;2023-02-12T03:16:03;49.70;;;25.88;;
19205;SDS011;59358;52.134;5.596;2023-02-12T03:18:34;48.80;;;27.08;;
19205;SDS011;59358;52.134;5.596;2023-02-12T03:21:08;54.10;;;27.75;;
19205;SDS011;59358;52.134;5.596;2023-02-12T03:23:39;50.78;;;27.13;;
19205;SDS011;59358;52.134;5.596;2023-02-12T03:26:10;54.95;;;29.02;;
19205;SDS011;59358;52.134;5.596;2023-02-12T03:28:42;48.90;;;26.67;;
19205;SDS011;59358;52.134;5.596;2023-02-12T03:31:11;52.10;;;27.45;;
19205;SDS011;59358;52.134;5.596;2023-02-12T03:33:51;54.33;;;28.63;;
19205;SDS011;59358;52.134;5.596;2023-02-12T03:36:32;57.55;;;30.98;;
19205;SDS011;59358;52.134;5.596;2023-02-12T03:39:06;57.90;;;31.73;;
19205;SDS011;59358;52.134;5.596;2023-02-12T03:41:38;56.53;;;31.20;;
19205;SDS011;59358;52.134;5.596;2023-02-12T03:47:01;55.88;;;30.48;;
19205;SDS011;59358;52.134;5.596;2023-02-12T03:49:41;55.42;;;29.65;;
19205;SDS011;59358;52.134;5.596;2023-02-12T03:52:13;56.55;;;28.75;;
19205;SDS011;59358;52.134;5.596;2023-02-12T03:54:40;49.33;;;26.88;;
19205;SDS011;59358;52.134;5.596;2023-02-12T03:57:08;47.45;;;27.00;;
19205;SDS011;59358;52.134;5.596;2023-02-12T03:59:39;45.45;;;26.73;;
19205;SDS011;59358;52.134;5.596;2023-02-12T04:02:07;44.22;;;26.10;;
19205;SDS011;59358;52.134;5.596;2023-02-12T04:04:35;44.10;;;25.15;;
19205;SDS011;59358;52.134;5.596;2023-02-12T04:07:02;45.28;;;25.45;;
19205;SDS011;59358;52.134;5.596;2023-02-12T04:09:29;44.90;;;25.80;;
19205;SDS011;59358;52.134;5.596;2023-02-12T04:11:59;47.47;;;26.42;;
19205;SDS011;59358;52.134;5.596;2023-02-12T04:14:35;43.65;;;24.40;;
19205;SDS011;59358;52.134;5.596;2023-02-12T04:17:13;47.80;;;24.77;;
19205;SDS011;59358;52.134;5.596;2023-02-12T04:19:49;41.33;;;24.52;;
19205;SDS011;59358;52.134;5.596;2023-02-12T04:22:28;39.45;;;23.80;;
19205;SDS011;59358;52.134;5.596;2023-02-12T04:25:07;44.55;;;24.42;;
19205;SDS011;59358;52.134;5.596;2023-02-12T04:27:46;46.15;;;25.27;;
19205;SDS011;59358;52.134;5.596;2023-02-12T04:30:20;42.45;;;24.73;;
19205;SDS011;59358;52.134;5.596;2023-02-12T04:32:54;42.67;;;23.67;;
19205;SDS011;59358;52.134;5.596;2023-02-12T04:35:26;43.80;;;24.42;;
19205;SDS011;59358;52.134;5.596;2023-02-12T04:37:58;45.60;;;24.23;;
19205;SDS011;59358;52.134;5.596;2023-02-12T04:40:30;51.50;;;26.08;;
19205;SDS011;59358;52.134;5.596;2023-02-12T04:42:58;48.70;;;26.20;;
19205;SDS011;59358;52.134;5.596;2023-02-12T04:45:25;45.33;;;25.52;;
19205;SDS011;59358;52.134;5.596;2023-02-12T04:47:56;44.30;;;25.27;;
19205;SDS011;59358;52.134;5.596;2023-02-12T04:50:23;47.95;;;27.40;;
19205;SDS011;59358;52.134;5.596;2023-02-12T04:52:51;46.22;;;27.10;;
19205;SDS011;59358;52.134;5.596;2023-02-12T04:55:18;51.30;;;27.02;;
19205;SDS011;59358;52.134;5.596;2023-02-12T04:57:46;46.35;;;26.60;;
19205;SDS011;59358;52.134;5.596;2023-02-12T05:00:13;49.13;;;27.25;;
19205;SDS011;59358;52.134;5.596;2023-02-12T05:02:41;42.97;;;27.13;;
19205;SDS011;59358;52.134;5.596;2023-02-12T05:05:09;51.33;;;27.05;;
19205;SDS011;59358;52.134;5.596;2023-02-12T05:07:36;44.63;;;26.38;;
19205;SDS011;59358;52.134;5.596;2023-02-12T05:10:03;49.83;;;27.10;;
19205;SDS011;59358;52.134;5.596;2023-02-12T05:12:30;51.22;;;28.38;;
19205;SDS011;59358;52.134;5.596;2023-02-12T05:14:57;49.08;;;28.23;;
19205;SDS011;59358;52.134;5.596;2023-02-12T05:17:24;48.13;;;27.90;;
19205;SDS011;59358;52.134;5.596;2023-02-12T05:19:51;48.97;;;27.30;;
19205;SDS011;59358;52.134;5.596;2023-02-12T05:22:20;47.83;;;28.20;;
19205;SDS011;59358;52.134;5.596;2023-02-12T05:24:47;53.17;;;29.83;;
19205;SDS011;59358;52.134;5.596;2023-02-12T05:27:14;53.42;;;29.83;;
19205;SDS011;59358;52.134;5.596;2023-02-12T05:29:40;52.28;;;29.23;;
19205;SDS011;59358;52.134;5.596;2023-02-12T05:32:07;53.40;;;29.30;;
19205;SDS011;59358;52.134;5.596;2023-02-12T05:34:35;49.60;;;29.63;;
19205;SDS011;59358;52.134;5.596;2023-02-12T05:37:02;51.83;;;30.55;;
19205;SDS011;59358;52.134;5.596;2023-02-12T05:39:30;58.28;;;31.42;;
19205;SDS011;59358;52.134;5.596;2023-02-12T05:41:57;51.97;;;30.33;;
19205;SDS011;59358;52.134;5.596;2023-02-12T05:44:24;51.03;;;29.02;;
19205;SDS011;59358;52.134;5.596;2023-02-12T05:46:51;49.50;;;29.80;;
19205;SDS011;59358;52.134;5.596;2023-02-12T05:49:18;54.10;;;31.98;;
19205;SDS011;59358;52.134;5.596;2023-02-12T05:51:44;53.38;;;30.65;;
19205;SDS011;59358;52.134;5.596;2023-02-12T05:54:11;54.10;;;30.35;;
19205;SDS011;59358;52.134;5.596;2023-02-12T05:56:42;52.90;;;28.77;;
19205;SDS011;59358;52.134;5.596;2023-02-12T05:59:12;50.90;;;29.10;;
19205;SDS011;59358;52.134;5.596;2023-02-12T06:01:41;57.55;;;29.55;;
19205;SDS011;59358;52.134;5.596;2023-02-12T06:04:12;57.33;;;32.38;;
19205;SDS011;59358;52.134;5.596;2023-02-12T06:06:41;49.58;;;29.95;;
19205;SDS011;59358;52.134;5.596;2023-02-12T06:09:09;54.88;;;30.08;;
19205;SDS011;59358;52.134;5.596;2023-02-12T06:11:40;51.92;;;30.38;;
19205;SDS011;59358;52.134;5.596;2023-02-12T06:14:10;52.92;;;30.73;;
19205;SDS011;59358;52.134;5.596;2023-02-12T06:16:39;46.58;;;28.08;;
19205;SDS011;59358;52.134;5.596;2023-02-12T06:19:06;53.00;;;30.65;;
19205;SDS011;59358;52.134;5.596;2023-02-12T06:21:34;49.15;;;29.50;;
19205;SDS011;59358;52.134;5.596;2023-02-12T06:24:01;48.30;;;29.25;;
19205;SDS011;59358;52.134;5.596;2023-02-12T06:26:28;45.83;;;28.10;;
19205;SDS011;59358;52.134;5.596;2023-02-12T06:28:57;59.92;;;31.80;;
19205;SDS011;59358;52.134;5.596;2023-02-12T06:31:24;49.42;;;30.40;;
19205;SDS011;59358;52.134;5.596;2023-02-12T06:33:54;48.67;;;30.45;;
19205;SDS011;59358;52.134;5.596;2023-02-12T06:36:22;50.95;;;29.42;;
19205;SDS011;59358;52.134;5.596;2023-02-12T06:38:49;48.42;;;28.65;;
19205;SDS011;59358;52.134;5.596;2023-02-12T06:41:16;51.90;;;29.50;;
19205;SDS011;59358;52.134;5.596;2023-02-12T06:43:43;45.28;;;29.27;;
19205;SDS011;59358;52.134;5.596;2023-02-12T06:46:16;51.33;;;30.42;;
19205;SDS011;59358;52.134;5.596;2023-02-12T06:48:43;50.97;;;30.52;;
19205;SDS011;59358;52.134;5.596;2023-02-12T06:51:10;54.25;;;32.65;;
19205;SDS011;59358;52.134;5.596;2023-02-12T06:53:38;47.97;;;28.60;;
19205;SDS011;59358;52.134;5.596;2023-02-12T06:56:06;46.75;;;27.23;;
19205;SDS011;59358;52.134;5.596;2023-02-12T06:58:35;45.60;;;27.90;;
19205;SDS011;59358;52.134;5.596;2023-02-12T07:01:08;50.72;;;30.58;;
19205;SDS011;59358;52.134;5.596;2023-02-12T07:03:39;54.00;;;32.58;;
19205;SDS011;59358;52.134;5.596;2023-02-12T07:06:06;55.45;;;30.30;;
19205;SDS011;59358;52.134;5.596;2023-02-12T07:08:34;48.70;;;29.77;;
19205;SDS011;59358;52.134;5.596;2023-02-12T07:11:01;48.30;;;28.65;;
19205;SDS011;59358;52.134;5.596;2023-02-12T07:13:30;44.65;;;26.63;;
19205;SDS011;59358;52.134;5.596;2023-02-12T07:16:01;41.83;;;27.15;;
19205;SDS011;59358;52.134;5.596;2023-02-12T07:18:29;42.72;;;27.55;;
19205;SDS011;59358;52.134;5.596;2023-02-12T07:20:57;45.30;;;29.70;;
19205;SDS011;59358;52.134;5.596;2023-02-12T07:23:24;49.55;;;28.52;;
19205;SDS011;59358;52.134;5.596;2023-02-12T07:25:55;42.42;;;26.15;;
19205;SDS011;59358;52.134;5.596;2023-02-12T07:28:22;46.75;;;27.40;;
19205;SDS011;59358;52.134;5.596;2023-02-12T07:30:49;45.25;;;27.70;;
19205;SDS011;59358;52.134;5.596;2023-02-12T07:33:16;46.42;;;26.30;;
19205;SDS011;59358;52.134;5.596;2023-02-12T07:35:43;45.75;;;27.00;;
19205;SDS011;59358;52.134;5.596;2023-02-12T07:38:12;47.67;;;28.15;;
19205;SDS011;59358;52.134;5.596;2023-02-12T07:40:39;50.63;;;28.98;;
19205;SDS011;59358;52.134;5.596;2023-02-12T07:43:05;41.80;;;27.17;;
19205;SDS011;59358;52.134;5.596;2023-02-12T07:45:32;45.45;;;28.50;;
19205;SDS011;59358;52.134;5.596;2023-02-12T07:47:59;45.65;;;27.40;;
19205;SDS011;59358;52.134;5.596;2023-02-12T07:50:26;43.70;;;27.50;;
19205;SDS011;59358;52.134;5.596;2023-02-12T07:52:53;50.50;;;30.38;;
19205;SDS011;59358;52.134;5.596;2023-02-12T07:55:21;55.97;;;36.35;;
19205;SDS011;59358;52.134;5.596;2023-02-12T07:57:48;50.40;;;35.10;;
19205;SDS011;59358;52.134;5.596;2023-02-12T08:00:17;48.83;;;30.48;;
19205;SDS011;59358;52.134;5.596;2023-02-12T08:02:49;45.88;;;30.13;;
19205;SDS011;59358;52.134;5.596;2023-02-12T08:05:17;45.03;;;28.25;;
19205;SDS011;59358;52.134;5.596;2023-02-12T08:07:44;43.03;;;26.52;;
19205;SDS011;59358;52.134;5.596;2023-02-12T08:10:11;41.65;;;26.80;;
19205;SDS011;59358;52.134;5.596;2023-02-12T08:12:39;42.58;;;29.02;;
19205;SDS011;59358;52.134;5.596;2023-02-12T08:15:08;43.03;;;28.05;;
19205;SDS011;59358;52.134;5.596;2023-02-12T08:17:38;42.50;;;26.23;;
19205;SDS011;59358;52.134;5.596;2023-02-12T08:20:07;39.45;;;25.23;;
19205;SDS011;59358;52.134;5.596;2023-02-12T08:22:35;35.60;;;25.45;;
19205;SDS011;59358;52.134;5.596;2023-02-12T08:25:01;38.60;;;25.27;;
19205;SDS011;59358;52.134;5.596;2023-02-12T08:27:33;39.72;;;24.80;;
19205;SDS011;59358;52.134;5.596;2023-02-12T08:30:02;37.95;;;26.60;;
19205;SDS011;59358;52.134;5.596;2023-02-12T08:32:29;39.50;;;26.63;;
19205;SDS011;59358;52.134;5.596;2023-02-12T08:34:57;42.30;;;27.92;;
19205;SDS011;59358;52.134;5.596;2023-02-12T08:37:24;38.72;;;26.75;;
19205;SDS011;59358;52.134;5.596;2023-02-12T08:39:51;45.85;;;29.77;;
19205;SDS011;59358;52.134;5.596;2023-02-12T08:42:18;42.72;;;28.02;;
19205;SDS011;59358;52.134;5.596;2023-02-12T08:44:44;43.88;;;27.75;;
19205;SDS011;59358;52.134;5.596;2023-02-12T08:47:13;40.95;;;28.17;;
19205;SDS011;59358;52.134;5.596;2023-02-12T08:49:39;36.75;;;25.15;;
19205;SDS011;59358;52.134;5.596;2023-02-12T08:52:06;42.42;;;25.67;;
19205;SDS011;59358;52.134;5.596;2023-02-12T08:54:33;36.58;;;24.52;;
19205;SDS011;59358;52.134;5.596;2023-02-12T08:57:01;39.78;;;25.33;;
19205;SDS011;59358;52.134;5.596;2023-02-12T08:59:28;37.28;;;25.10;;
19205;SDS011;59358;52.134;5.596;2023-02-12T09:01:55;39.35;;;25.50;;
19205;SDS011;59358;52.134;5.596;2023-02-12T09:04:25;35.67;;;24.08;;
19205;SDS011;59358;52.134;5.596;2023-02-12T09:06:54;33.13;;;23.20;;
19205;SDS011;59358;52.134;5.596;2023-02-12T09:09:21;38.17;;;24.55;;
19205;SDS011;59358;52.134;5.596;2023-02-12T09:11:48;37.97;;;24.95;;
19205;SDS011;59358;52.134;5.596;2023-02-12T09:14:15;36.83;;;24.45;;
19205;SDS011;59358;52.134;5.596;2023-02-12T09:16:47;34.90;;;23.90;;
19205;SDS011;59358;52.134;5.596;2023-02-12T09:19:16;36.58;;;24.65;;
19205;SDS011;59358;52.134;5.596;2023-02-12T09:21:48;35.08;;;23.27;;
19205;SDS011;59358;52.134;5.596;2023-02-12T09:24:19;37.00;;;23.92;;
19205;SDS011;59358;52.134;5.596;2023-02-12T09:26:46;34.60;;;23.98;;
19205;SDS011;59358;52.134;5.596;2023-02-12T09:29:13;35.13;;;24.55;;
19205;SDS011;59358;52.134;5.596;2023-02-12T09:31:40;35.83;;;23.67;;
19205;SDS011;59358;52.134;5.596;2023-02-12T09:34:07;39.72;;;25.73;;
19205;SDS011;59358;52.134;5.596;2023-02-12T09:36:33;34.63;;;24.98;;
19205;SDS011;59358;52.134;5.596;2023-02-12T09:39:02;39.15;;;24.60;;
19205;SDS011;59358;52.134;5.596;2023-02-12T09:44:33;36.80;;;23.98;;
19205;SDS011;59358;52.134;5.596;2023-02-12T09:47:07;30.52;;;22.25;;
19205;SDS011;59358;52.134;5.596;2023-02-12T09:49:42;35.55;;;23.67;;
19205;SDS011;59358;52.134;5.596;2023-02-12T09:52:17;35.72;;;23.50;;
19205;SDS011;59358;52.134;5.596;2023-02-12T09:54:47;35.63;;;23.73;;
19205;SDS011;59358;52.134;5.596;2023-02-12T09:57:16;34.95;;;23.30;;
19205;SDS011;59358;52.134;5.596;2023-02-12T09:59:47;33.17;;;24.05;;
19205;SDS011;59358;52.134;5.596;2023-02-12T10:02:18;36.70;;;24.92;;
19205;SDS011;59358;52.134;5.596;2023-02-12T10:04:47;35.38;;;25.02;;
19205;SDS011;59358;52.134;5.596;2023-02-12T10:07:17;33.92;;;24.85;;
19205;SDS011;59358;52.134;5.596;2023-02-12T10:09:59;35.60;;;24.73;;
19205;SDS011;59358;52.134;5.596;2023-02-12T10:12:37;36.45;;;24.55;;
19205;SDS011;59358;52.134;5.596;2023-02-12T10:15:14;34.17;;;24.35;;
19205;SDS011;59358;52.134;5.596;2023-02-12T10:17:54;42.30;;;26.77;;
19205;SDS011;59358;52.134;5.596;2023-02-12T10:20:39;36.17;;;24.90;;
19205;SDS011;59358;52.134;5.596;2023-02-12T10:23:24;41.03;;;25.80;;
19205;SDS011;59358;52.134;5.596;2023-02-12T10:26:14;35.67;;;23.80;;
19205;SDS011;59358;52.134;5.596;2023-02-12T10:28:45;36.42;;;25.05;;
19205;SDS011;59358;52.134;5.596;2023-02-12T10:31:15;36.92;;;25.65;;
19205;SDS011;59358;52.134;5.596;2023-02-12T10:33:47;40.53;;;26.23;;
19205;SDS011;59358;52.134;5.596;2023-02-12T10:36:17;37.83;;;26.55;;
19205;SDS011;59358;52.134;5.596;2023-02-12T10:38:54;41.55;;;26.75;;
19205;SDS011;59358;52.134;5.596;2023-02-12T10:41:27;37.35;;;25.98;;
19205;SDS011;59358;52.134;5.596;2023-02-12T10:43:56;40.25;;;25.77;;
19205;SDS011;59358;52.134;5.596;2023-02-12T10:46:23;40.63;;;26.83;;
19205;SDS011;59358;52.134;5.596;2023-02-12T10:48:51;39.80;;;27.23;;
19205;SDS011;59358;52.134;5.596;2023-02-12T10:51:28;37.45;;;26.38;;
19205;SDS011;59358;52.134;5.596;2023-02-12T10:57:09;40.35;;;27.70;;
19205;SDS011;59358;52.134;5.596;2023-02-12T10:59:38;38.08;;;25.58;;
19205;SDS011;59358;52.134;5.596;2023-02-12T11:02:16;37.50;;;26.05;;
19205;SDS011;59358;52.134;5.596;2023-02-12T11:04:46;38.78;;;25.92;;
19205;SDS011;59358;52.134;5.596;2023-02-12T11:07:13;37.83;;;25.73;;
19205;SDS011;59358;52.134;5.596;2023-02-12T11:09:41;38.20;;;26.00;;
19205;SDS011;59358;52.134;5.596;2023-02-12T11:15:00;40.83;;;26.15;;
19205;SDS011;59358;52.134;5.596;2023-02-12T11:17:32;42.25;;;27.10;;
19205;SDS011;59358;52.134;5.596;2023-02-12T11:20:06;40.97;;;26.20;;
19205;SDS011;59358;52.134;5.596;2023-02-12T11:22:49;44.88;;;28.90;;
19205;SDS011;59358;52.134;5.596;2023-02-12T11:25:17;36.42;;;25.48;;
19205;SDS011;59358;52.134;5.596;2023-02-12T11:27:50;43.28;;;27.42;;
19205;SDS011;59358;52.134;5.596;2023-02-12T11:30:25;41.85;;;27.27;;
19205;SDS011;59358;52.134;5.596;2023-02-12T11:32:52;38.60;;;24.60;;
19205;SDS011;59358;52.134;5.596;2023-02-12T11:35:19;41.03;;;25.70;;
19205;SDS011;59358;52.134;5.596;2023-02-12T11:37:50;42.10;;;27.38;;
19205;SDS011;59358;52.134;5.596;2023-02-12T11:40:19;38.38;;;25.17;;
19205;SDS011;59358;52.134;5.596;2023-02-12T11:42:50;37.97;;;24.63;;
19205;SDS011;59358;52.134;5.596;2023-02-12T11:45:20;42.60;;;26.48;;
19205;SDS011;59358;52.134;5.596;2023-02-12T11:47:56;37.85;;;25.45;;
19205;SDS011;59358;52.134;5.596;2023-02-12T11:50:24;38.33;;;25.38;;
19205;SDS011;59358;52.134;5.596;2023-02-12T11:52:55;36.15;;;24.77;;
19205;SDS011;59358;52.134;5.596;2023-02-12T11:55:26;41.85;;;25.65;;
19205;SDS011;59358;52.134;5.596;2023-02-12T11:58:02;37.95;;;23.92;;
19205;SDS011;59358;52.134;5.596;2023-02-12T12:00:31;35.80;;;24.40;;
19205;SDS011;59358;52.134;5.596;2023-02-12T12:03:05;37.45;;;24.85;;
19205;SDS011;59358;52.134;5.596;2023-02-12T12:05:39;41.63;;;26.48;;
19205;SDS011;59358;52.134;5.596;2023-02-12T12:08:13;35.28;;;23.65;;
19205;SDS011;59358;52.134;5.596;2023-02-12T12:10:46;33.03;;;22.52;;
19205;SDS011;59358;52.134;5.596;2023-02-12T12:13:17;34.58;;;23.63;;
19205;SDS011;59358;52.134;5.596;2023-02-12T12:15:49;32.47;;;22.17;;
19205;SDS011;59358;52.134;5.596;2023-02-12T12:18:41;34.05;;;23.90;;
19205;SDS011;59358;52.134;5.596;2023-02-12T12:21:33;31.83;;;22.60;;
19205;SDS011;59358;52.134;5.596;2023-02-12T12:24:05;34.03;;;22.98;;
19205;SDS011;59358;52.134;5.596;2023-02-12T12:26:40;33.17;;;20.95;;
19205;SDS011;59358;52.134;5.596;2023-02-12T12:29:16;29.42;;;19.70;;
19205;SDS011;59358;52.134;5.596;2023-02-12T12:31:48;30.17;;;20.02;;
19205;SDS011;59358;52.134;5.596;2023-02-12T12:34:20;31.27;;;20.92;;
19205;SDS011;59358;52.134;5.596;2023-02-12T12:36:58;29.23;;;20.73;;
19205;SDS011;59358;52.134;5.596;2023-02-12T12:39:43;33.00;;;22.20;;
19205;SDS011;59358;52.134;5.596;2023-02-12T12:42:42;34.00;;;22.17;;
19205;SDS011;59358;52.134;5.596;2023-02-12T12:45:30;37.03;;;22.20;;
19205;SDS011;59358;52.134;5.596;2023-02-12T12:48:10;30.27;;;21.17;;
19205;SDS011;59358;52.134;5.596;2023-02-12T12:50:50;32.03;;;22.98;;
19205;SDS011;59358;52.134;5.596;2023-02-12T12:53:30;37.13;;;23.00;;
19205;SDS011;59358;52.134;5.596;2023-02-12T12:56:11;40.95;;;23.88;;
19205;SDS011;59358;52.134;5.596;2023-02-12T12:59:06;34.53;;;23.15;;
19205;SDS011;59358;52.134;5.596;2023-02-12T13:01:55;32.10;;;20.85;;
19205;SDS011;59358;52.134;5.596;2023-02-12T13:04:44;35.95;;;22.08;;
19205;SDS011;59358;52.134;5.596;2023-02-12T13:07:31;35.38;;;22.45;;
19205;SDS011;59358;52.134;5.596;2023-02-12T13:10:12;31.25;;;22.50;;
19205;SDS011;59358;52.134;5.596;2023-02-12T13:12:47;32.63;;;22.30;;
19205;SDS011;59358;52.134;5.596;2023-02-12T13:15:26;33.35;;;22.48;;
19205;SDS011;59358;52.134;5.596;2023-02-12T13:18:02;30.65;;;20.25;;
19205;SDS011;59358;52.134;5.596;2023-02-12T13:20:40;30.15;;;20.70;;
19205;SDS011;59358;52.134;5.596;2023-02-12T13:23:14;33.53;;;22.50;;
19205;SDS011;59358;52.134;5.596;2023-02-12T13:25:45;31.45;;;21.42;;
19205;SDS011;59358;52.134;5.596;2023-02-12T13:28:29;40.53;;;24.80;;
19205;SDS011;59358;52.134;5.596;2023-02-12T13:31:01;34.63;;;23.50;;
19205;SDS011;59358;52.134;5.596;2023-02-12T13:33:37;31.55;;;20.92;;
19205;SDS011;59358;52.134;5.596;2023-02-12T13:36:09;31.50;;;19.70;;
19205;SDS011;59358;52.134;5.596;2023-02-12T13:38:41;36.50;;;23.05;;
19205;SDS011;59358;52.134;5.596;2023-02-12T13:41:11;28.65;;;20.15;;
19205;SDS011;59358;52.134;5.596;2023-02-12T13:43:41;31.02;;;20.15;;
19205;SDS011;59358;52.134;5.596;2023-02-12T13:46:16;34.10;;;20.75;;
19205;SDS011;59358;52.134;5.596;2023-02-12T13:48:53;29.50;;;20.08;;
19205;SDS011;59358;52.134;5.596;2023-02-12T13:51:38;35.05;;;21.33;;
19205;SDS011;59358;52.134;5.596;2023-02-12T13:54:11;30.00;;;20.98;;
19205;SDS011;59358;52.134;5.596;2023-02-12T13:56:50;28.58;;;19.58;;
19205;SDS011;59358;52.134;5.596;2023-02-12T14:05:22;26.33;;;18.60;;
19205;SDS011;59358;52.134;5.596;2023-02-12T14:07:55;24.45;;;17.35;;
19205;SDS011;59358;52.134;5.596;2023-02-12T14:10:28;23.25;;;14.90;;
19205;SDS011;59358;52.134;5.596;2023-02-12T14:12:58;21.52;;;15.90;;
19205;SDS011;59358;52.134;5.596;2023-02-12T14:15:41;25.90;;;16.00;;
19205;SDS011;59358;52.134;5.596;2023-02-12T14:18:26;26.83;;;17.08;;
19205;SDS011;59358;52.134;5.596;2023-02-12T14:27:21;25.13;;;17.00;;
19205;SDS011;59358;52.134;5.596;2023-02-12T14:35:47;27.20;;;17.45;;
19205;SDS011;59358;52.134;5.596;2023-02-12T14:41:27;27.88;;;18.20;;
19205;SDS011;59358;52.134;5.596;2023-02-12T14:50:13;32.85;;;20.05;;
19205;SDS011;59358;52.134;5.596;2023-02-12T14:52:45;30.38;;;18.75;;
19205;SDS011;59358;52.134;5.596;2023-02-12T14:55:19;28.52;;;18.50;;
19205;SDS011;59358;52.134;5.596;2023-02-12T14:57:48;29.33;;;17.48;;
19205;SDS011;59358;52.134;5.596;2023-02-12T15:00:20;30.10;;;18.17;;
19205;SDS011;59358;52.134;5.596;2023-02-12T15:02:52;26.75;;;16.70;;
19205;SDS011;59358;52.134;5.596;2023-02-12T15:05:22;28.17;;;17.85;;
19205;SDS011;59358;52.134;5.596;2023-02-12T15:07:54;30.00;;;19.25;;
19205;SDS011;59358;52.134;5.596;2023-02-12T15:10:26;29.15;;;18.67;;
19205;SDS011;59358;52.134;5.596;2023-02-12T15:12:58;34.33;;;23.13;;
19205;SDS011;59358;52.134;5.596;2023-02-12T15:15:34;34.58;;;20.35;;
19205;SDS011;59358;52.134;5.596;2023-02-12T15:18:06;31.13;;;19.75;;
19205;SDS011;59358;52.134;5.596;2023-02-12T15:20:42;27.40;;;18.13;;
19205;SDS011;59358;52.134;5.596;2023-02-12T15:23:29;26.20;;;18.00;;
19205;SDS011;59358;52.134;5.596;2023-02-12T15:25:59;24.13;;;16.80;;
19205;SDS011;59358;52.134;5.596;2023-02-12T15:28:28;26.10;;;17.58;;
19205;SDS011;59358;52.134;5.596;2023-02-12T15:31:00;28.50;;;17.65;;
19205;SDS011;59358;52.134;5.596;2023-02-12T15:33:31;27.67;;;17.42;;